Contact Us:
Email: info@sawbill.com
Phone: (218)663-7150
Fax: (218)663-7980
Mail: 4620 Sawbill Trail
Box 2129
Tofte, MN 55615


Powered by
Movable Type 3.15
 
Sawbill Weather History Archives: November 2006
Current Sawbill Weather History | « October 2006 | December 2006 »


Date

High
Temperature

Low
Temperature

Barometric
Pressure

Relative
Humidity 7AM

9 AM
Temperature

Moisture

Snow

11/30/06 17 6 29.97 67% 16 0
11/29/06 29 5 30.01 60% 6 Trace Trace
11/28/06 37 29 29.83 75% 29 Trace
11/27/06 32 25 29.93 83% 30 0
11/26/06 40 23 30.23 67% 26 Trace
11/25/06 44 23 30.15 51% 23 0
11/24/06 48 26 30.00 66% 28 0
11/23/06 45 31 29.89 80% 37 0
11/22/06 48 30 30.21 75% 31 0
11/21/06 52 30 30.01 73% 36 0
11/20/06 35 14 29.98 73% 35 0
11/19/06 41 14 30.28 64% 14 0
11/18/06 39 21 30.28 76% 22 0
11/17/06 35 29 30.13 71% 30 0
11/16/06 33 28 29.86 74% 29 0
11/15/06 36 29 29.92 72% 29 0
11/14/06 35 29 29.94 81% 32 0
11/13/06 36 31 29.87 86% 32 0
11/12/06 33 28 29.81 81% 33 .5" 4"
11/11/06 36 22 30.02 76% 28 0
11/10/06 30 21 30.19 62% 22 0
11/9/06 33 28 30.10 61% 28 0
11/8/06 51 31 29.65 68% 32 0
11/7/06 44 39 29.39 90% 44 0
11/6/06 59 34 29.80 85% 41 0
11/5/06 43 34 28.81 81% 35 0
11/4/06 36 22 30.10 80% 34 Trace Trace
11/3/06 35 17 30.16 73% 21 0
11/2/06 31 25 30.20 66% 26 .03" .5"
11/1/06 33 24 29.97 70% 25 Trace Trace
 


Home I Trip Planning I Rentals and Outfitting I Reservations I Campgrounds I Sawbill Store I Sawbill News I Contact

© 1997 - 2017, Sawbill Canoe Outfitters, Inc. I Privacy Policy